• Join FlightAware (Why Join?)
  • Login
  • US Flag 
02:13PM EDT


 

Airport Tracker/Info


-or-


 

Live Flight TrackerFlight Track Log ✈ EJA364 ✈ 18-Jul-2013 ✈ KBCT - KPDK

Flight Track Log - Related Links

Times and Time Zones

All times are in EDT time to prevent confusion due to time zone crossing. See the EJA364 flight status page for this flight to view local times or setup timezone preferences in your user account.

Time Position Orientation Groundspeed Altitude Reporting Facility
EDT Latitude Longitude Course Direction KTS MPH feet Rate Location/Type
08:51AM 26.4600 -80.1033 318° Northwest 187 215 8,300  Level Miami Center
08:52AM 26.5008 -80.1439 318° Northwest 253 291 10,000 960 Climbing Miami Center
08:53AM 26.5406 -80.2378 295° West 337 388 10,300 540 Climbing Miami Center
08:54AM 26.6050 -80.3325 307° West 353 406 11,100 1,740 Climbing Miami Center
08:55AM 26.6936 -80.3817 334° Northwest 347 399 13,800 2,700 Climbing Miami Center
08:56AM 26.7803 -80.4239 336° Northwest 365 420 16,600 2,940 Climbing Miami Center
08:57AM 26.8811 -80.4897 330° Northwest 373 429 19,700 3,000 Climbing Miami Center
08:58AM 26.9650 -80.5622 322° Northwest 378 435 22,600 1,800 Climbing Miami Center
08:59AM 27.0525 -80.6467 319° Northwest 393 452 23,300 1,920 Climbing Miami Center
09:00AM 27.1419 -80.7336 319° Northwest 409 471 26,500 3,180 Climbing Miami Center
09:01AM 27.2406 -80.7978 330° Northwest 414 476 29,700 2,220 Climbing Miami Center
09:02AM 27.3439 -80.8386 341° North 394 453 31,000 600 Climbing Miami Center
09:03AM 27.4636 -80.8872 340° North 421 484 31,000  Level Miami Center
09:04AM 27.5750 -80.9333 340° North 456 525 31,000  Level Miami Center
09:05AM 27.7008 -80.9847 340° North 470 541 31,000  Level Miami Center
09:06AM 27.8267 -81.0336 341° North 470 541 31,000  Level Miami Center
09:07AM 27.9464 -81.0853 339° North 470 541 31,000  Level Miami Center
09:08AM 28.0864 -81.1469 339° North 483 556 31,000  Level Miami Center
09:09AM 28.2122 -81.1989 340° North 483 556 31,000  Level Miami Center
09:10AM 28.3378 -81.2508 340° North 483 556 31,000  Level Miami Center
09:11AM 28.4533 -81.2978 340° North 483 556 31,000  Level Miami Center
09:12AM 28.6356 -81.3669 342° North 488 562 31,000  Level Jacksonville Center
09:13AM 28.7675 -81.4122 343° North 493 567 31,000  Level Jacksonville Center
09:14AM 28.8972 -81.4531 345° North 488 562 31,000  Level Jacksonville Center
09:15AM 29.0272 -81.4961 344° North 483 556 31,000  Level Jacksonville Center
09:16AM 29.1486 -81.5372 344° North 469 540 31,000  Level Jacksonville Center
09:17AM 29.2744 -81.5761 345° North 443 510 31,000  Level Jacksonville Center
09:18AM 29.3853 -81.6128 344° North 422 486 31,000  Level Jacksonville Center
09:19AM 29.4964 -81.6519 343° North 413 475 31,000  Level Jacksonville Center
09:20AM 29.6053 -81.6864 345° North 407 468 31,000  Level Jacksonville Center
09:21AM 29.7119 -81.7208 344° North 401 461 31,000  Level Jacksonville Center
09:22AM 29.8189 -81.7556 344° North 401 461 31,000  Level Jacksonville Center
09:23AM 29.9256 -81.7925 343° North 401 461 31,000  Level Jacksonville Center
09:24AM 30.0325 -81.8297 343° North 401 461 31,000  Level Jacksonville Center
09:25AM 30.1414 -81.8669 344° North 401 461 31,000  Level Jacksonville Center
09:26AM 30.2481 -81.9042 343° North 401 461 31,000  Level Jacksonville Center
09:27AM 30.3547 -81.9442 342° North 401 461 31,000  Level Jacksonville Center
09:28AM 30.4636 -81.9864 342° North 401 461 31,000  Level Jacksonville Center
09:29AM 30.5767 -82.0311 341° North 412 474 31,000  Level Jacksonville Center
09:30AM 30.6919 -82.0761 341° North 424 488 31,000  Level Jacksonville Center
09:31AM 30.8069 -82.1211 341° North 431 496 31,000  Level Jacksonville Center
09:32AM 30.9283 -82.1683 342° North 431 496 31,000  Level Jacksonville Center
09:33AM 31.0436 -82.2136 341° North 437 503 31,000  Level Jacksonville Center
09:34AM 31.1481 -82.2567 341° North 442 509 31,000  Level Jacksonville Center
09:35AM 31.2675 -82.3044 341° North 447 514 31,000  Level Jacksonville Center
09:36AM 31.3844 -82.3522 341° North 447 514 31,000  Level Jacksonville Center
09:37AM 31.5036 -82.4003 341° North 447 514 31,000  Level Jacksonville Center
09:38AM 31.6208 -82.4461 342° North 447 514 31,000  Level Jacksonville Center
09:40AM 31.8419 -82.5403 340° North 459 528 31,000  Level Atlanta Center
09:41AM 31.9550 -82.5847 342° North 442 509 31,000  Level Atlanta Center
09:42AM 32.0642 -82.6369 338° Northwest 430 495 31,000  Level Atlanta Center
09:43AM 32.1631 -82.7092 328° Northwest 419 482 31,000  Level Atlanta Center
09:44AM 32.2619 -82.7861 327° Northwest 419 482 31,000  Level Atlanta Center
09:45AM 32.3608 -82.8611 327° Northwest 419 482 31,000  Level Atlanta Center
09:46AM 32.4556 -82.9336 327° Northwest 419 482 31,000 -480 Level Atlanta Center
09:47AM 32.5564 -83.0136 326° Northwest 424 488 30,100 -1,680 Descending Atlanta Center
09:48AM 32.6614 -83.0939 327° Northwest 437 503 27,700 -2,460 Descending Atlanta Center
09:49AM 32.7683 -83.1767 327° Northwest 453 521 25,200 -1,860 Descending Atlanta Center
09:50AM 32.8711 -83.2572 327° Northwest 446 513 24,000 -2,340 Descending Atlanta Center
09:51AM 32.9719 -83.3356 327° Northwest 446 513 20,600 -2,880 Descending Atlanta Center
09:52AM 33.0664 -83.4142 325° Northwest 431 496 18,300 -2,220 Descending Atlanta Center
09:53AM 33.1583 -83.4856 327° Northwest 406 467 16,200 -2,100 Descending Atlanta Center
09:54AM 33.2486 -83.5544 327° Northwest 389 448 14,200 -2,100 Descending Atlanta Center
09:55AM 33.3386 -83.6261 326° Northwest 384 442 12,100 -1,680 Descending Atlanta Center
09:56AM 33.4286 -83.7003 325° Northwest 371 427 10,900 -1,860 Descending Atlanta Center
09:57AM 33.4956 -83.7597 323° Northwest 327 376 8,400 -2,520 Descending Atlanta Center
09:58AM 33.5581 -83.8119 325° Northwest 290 334 5,900 -2,220 Descending Atlanta Center
09:59AM 33.6147 -83.8742 318° Northwest 284 327 4,000 -960 Descending Atlanta Center
10:00AM 33.6564 -83.9489 304° West 271 312 4,000  Level Atlanta Center
10:01AM 33.7003 -84.0214 306° West 271 312 4,000 -240 Level Atlanta Center
10:02AM 33.7461 -84.0939 307° West 271 312 3,600 -480 Descending Atlanta Center
10:04AM 33.8000 -84.1833 306° West 247 284 3,000 -480 Descending Atlanta TRACON
10:04AM 33.8167 -84.2333 292° West 217 250 2,700 -480 Descending Atlanta TRACON
10:05AM 33.8333 -84.2833 292° West 164 189 2,100 -600 Descending Atlanta TRACON
10:07AM 33.8667 -84.3000 220° Southwest  Level FlightAware Approximate
10:14AM 33.8756 -84.3020 220° Southwest  Level Estimated
10:15AM 33.8756 -84.3020 220° Southwest  Level Estimated
10:16AM 33.8756 -84.3020 220° Southwest  Level Estimated